logo
Search for airport 
image banner adimage banner adimage banner ad
image banner ad

LSMM - Meiringen

Located in , Switzerland

ICAO - LSMM, IATA -

Data provided by Airmate  

General information

Coordinates: N46°44'32" E8°6'32"
Elevation is 1893 feet MSL.
Magnetic variation is 2.585° East
View others Airports in Berne

Operational data

Special qualification required
Current time UTC:
Current local time:
Weather
METAR: LSMM 280150Z AUTO 00000KT 9999NDV -SHRA BKN052 OVC060 11/10 Q1022 RMK
View NOTAMs / SUP AIP / TFR affecting this airport [VIEW]
Communications frequencies: [VIEW]

Runways:

RWY identifierQFULength (ft)Width (ft)SurfaceLDA (ft)
106568131ASPH6470
286568131ASPH6453

Airport contact information

Address: Switzerland

Satellite view of LSMM